sensor_id;sensor_type;location;lat;lon;timestamp;P1;durP1;ratioP1;P2;durP2;ratioP2
49378;SDS011;35254;47.990;-1.608;2023-09-07T00:02:19;24.10;;;6.47;;
49378;SDS011;35254;47.990;-1.608;2023-09-07T00:04:45;27.55;;;6.45;;
49378;SDS011;35254;47.990;-1.608;2023-09-07T00:07:11;21.17;;;7.63;;
49378;SDS011;35254;47.990;-1.608;2023-09-07T00:09:37;21.30;;;7.45;;
49378;SDS011;35254;47.990;-1.608;2023-09-07T00:12:03;25.83;;;7.05;;
49378;SDS011;35254;47.990;-1.608;2023-09-07T00:14:28;14.35;;;4.63;;
49378;SDS011;35254;47.990;-1.608;2023-09-07T00:16:54;25.20;;;6.38;;
49378;SDS011;35254;47.990;-1.608;2023-09-07T00:19:19;24.42;;;6.00;;
49378;SDS011;35254;47.990;-1.608;2023-09-07T00:21:45;27.90;;;6.78;;
49378;SDS011;35254;47.990;-1.608;2023-09-07T00:24:11;21.90;;;5.30;;
49378;SDS011;35254;47.990;-1.608;2023-09-07T00:26:36;18.63;;;5.70;;
49378;SDS011;35254;47.990;-1.608;2023-09-07T00:29:02;19.15;;;6.28;;
49378;SDS011;35254;47.990;-1.608;2023-09-07T00:31:27;22.02;;;5.30;;
49378;SDS011;35254;47.990;-1.608;2023-09-07T00:33:53;17.25;;;5.32;;
49378;SDS011;35254;47.990;-1.608;2023-09-07T00:36:19;21.67;;;6.18;;
49378;SDS011;35254;47.990;-1.608;2023-09-07T00:38:44;22.63;;;7.03;;
49378;SDS011;35254;47.990;-1.608;2023-09-07T00:41:11;29.25;;;5.65;;
49378;SDS011;35254;47.990;-1.608;2023-09-07T00:43:37;20.73;;;5.30;;
49378;SDS011;35254;47.990;-1.608;2023-09-07T00:46:05;19.50;;;5.70;;
49378;SDS011;35254;47.990;-1.608;2023-09-07T00:48:31;13.07;;;5.75;;
49378;SDS011;35254;47.990;-1.608;2023-09-07T00:50:58;19.30;;;5.63;;
49378;SDS011;35254;47.990;-1.608;2023-09-07T00:53:25;33.72;;;6.80;;
49378;SDS011;35254;47.990;-1.608;2023-09-07T00:55:52;20.92;;;6.18;;
49378;SDS011;35254;47.990;-1.608;2023-09-07T00:58:20;20.52;;;5.20;;
49378;SDS011;35254;47.990;-1.608;2023-09-07T01:00:46;20.90;;;6.90;;
49378;SDS011;35254;47.990;-1.608;2023-09-07T01:03:12;17.90;;;5.38;;
49378;SDS011;35254;47.990;-1.608;2023-09-07T01:06:01;28.35;;;6.28;;
49378;SDS011;35254;47.990;-1.608;2023-09-07T01:08:45;17.45;;;5.25;;
49378;SDS011;35254;47.990;-1.608;2023-09-07T01:11:14;16.15;;;5.22;;
49378;SDS011;35254;47.990;-1.608;2023-09-07T01:13:40;14.32;;;4.28;;
49378;SDS011;35254;47.990;-1.608;2023-09-07T01:16:07;19.77;;;6.97;;
49378;SDS011;35254;47.990;-1.608;2023-09-07T01:18:34;18.30;;;5.75;;
49378;SDS011;35254;47.990;-1.608;2023-09-07T01:21:03;13.32;;;5.70;;
49378;SDS011;35254;47.990;-1.608;2023-09-07T01:23:32;18.92;;;5.45;;
49378;SDS011;35254;47.990;-1.608;2023-09-07T01:25:59;10.35;;;5.38;;
49378;SDS011;35254;47.990;-1.608;2023-09-07T01:28:25;15.63;;;5.20;;
49378;SDS011;35254;47.990;-1.608;2023-09-07T01:30:51;17.98;;;5.75;;
49378;SDS011;35254;47.990;-1.608;2023-09-07T01:33:17;14.43;;;5.25;;
49378;SDS011;35254;47.990;-1.608;2023-09-07T01:35:43;19.40;;;7.18;;
49378;SDS011;35254;47.990;-1.608;2023-09-07T01:38:09;22.83;;;6.05;;
49378;SDS011;35254;47.990;-1.608;2023-09-07T01:40:35;20.05;;;6.20;;
49378;SDS011;35254;47.990;-1.608;2023-09-07T01:43:01;14.70;;;4.50;;
49378;SDS011;35254;47.990;-1.608;2023-09-07T01:45:26;25.75;;;7.50;;
49378;SDS011;35254;47.990;-1.608;2023-09-07T01:47:52;16.63;;;6.28;;
49378;SDS011;35254;47.990;-1.608;2023-09-07T01:50:18;20.02;;;5.57;;
49378;SDS011;35254;47.990;-1.608;2023-09-07T01:52:45;14.90;;;4.65;;
49378;SDS011;35254;47.990;-1.608;2023-09-07T01:57:39;16.30;;;4.85;;
49378;SDS011;35254;47.990;-1.608;2023-09-07T02:00:05;21.98;;;4.65;;
49378;SDS011;35254;47.990;-1.608;2023-09-07T02:02:31;14.93;;;4.85;;
49378;SDS011;35254;47.990;-1.608;2023-09-07T02:04:57;21.77;;;4.72;;
49378;SDS011;35254;47.990;-1.608;2023-09-07T02:07:23;12.65;;;4.45;;
49378;SDS011;35254;47.990;-1.608;2023-09-07T02:09:49;16.55;;;5.95;;
49378;SDS011;35254;47.990;-1.608;2023-09-07T02:12:14;11.98;;;4.38;;
49378;SDS011;35254;47.990;-1.608;2023-09-07T02:14:40;17.55;;;4.63;;
49378;SDS011;35254;47.990;-1.608;2023-09-07T02:17:06;12.93;;;4.25;;
49378;SDS011;35254;47.990;-1.608;2023-09-07T02:19:31;17.95;;;6.45;;
49378;SDS011;35254;47.990;-1.608;2023-09-07T02:21:57;28.08;;;8.50;;
49378;SDS011;35254;47.990;-1.608;2023-09-07T02:24:23;24.38;;;5.22;;
49378;SDS011;35254;47.990;-1.608;2023-09-07T02:26:48;25.23;;;5.47;;
49378;SDS011;35254;47.990;-1.608;2023-09-07T02:29:14;21.50;;;6.15;;
49378;SDS011;35254;47.990;-1.608;2023-09-07T02:31:40;25.92;;;5.78;;
49378;SDS011;35254;47.990;-1.608;2023-09-07T02:34:06;25.45;;;6.72;;
49378;SDS011;35254;47.990;-1.608;2023-09-07T02:36:32;17.90;;;6.97;;
49378;SDS011;35254;47.990;-1.608;2023-09-07T02:38:59;24.98;;;8.15;;
49378;SDS011;35254;47.990;-1.608;2023-09-07T02:41:24;20.05;;;6.60;;
49378;SDS011;35254;47.990;-1.608;2023-09-07T02:43:50;21.98;;;6.75;;
49378;SDS011;35254;47.990;-1.608;2023-09-07T02:46:16;17.45;;;5.88;;
49378;SDS011;35254;47.990;-1.608;2023-09-07T02:48:42;20.77;;;6.60;;
49378;SDS011;35254;47.990;-1.608;2023-09-07T02:51:07;17.20;;;5.78;;
49378;SDS011;35254;47.990;-1.608;2023-09-07T02:53:33;18.75;;;6.80;;
49378;SDS011;35254;47.990;-1.608;2023-09-07T02:55:58;21.40;;;6.15;;
49378;SDS011;35254;47.990;-1.608;2023-09-07T02:58:27;21.00;;;6.05;;
49378;SDS011;35254;47.990;-1.608;2023-09-07T03:00:52;28.63;;;7.38;;
49378;SDS011;35254;47.990;-1.608;2023-09-07T03:03:18;29.08;;;6.57;;
49378;SDS011;35254;47.990;-1.608;2023-09-07T03:05:44;27.45;;;6.50;;
49378;SDS011;35254;47.990;-1.608;2023-09-07T03:08:10;48.75;;;10.68;;
49378;SDS011;35254;47.990;-1.608;2023-09-07T03:10:36;37.90;;;9.52;;
49378;SDS011;35254;47.990;-1.608;2023-09-07T03:13:07;27.05;;;8.07;;
49378;SDS011;35254;47.990;-1.608;2023-09-07T03:15:33;34.00;;;7.22;;
49378;SDS011;35254;47.990;-1.608;2023-09-07T03:17:59;31.92;;;6.32;;
49378;SDS011;35254;47.990;-1.608;2023-09-07T03:20:25;27.85;;;6.80;;
49378;SDS011;35254;47.990;-1.608;2023-09-07T03:22:51;23.15;;;5.50;;
49378;SDS011;35254;47.990;-1.608;2023-09-07T03:25:17;22.50;;;7.55;;
49378;SDS011;35254;47.990;-1.608;2023-09-07T03:27:42;24.98;;;7.72;;
49378;SDS011;35254;47.990;-1.608;2023-09-07T03:30:08;19.83;;;6.10;;
49378;SDS011;35254;47.990;-1.608;2023-09-07T03:32:35;28.08;;;7.07;;
49378;SDS011;35254;47.990;-1.608;2023-09-07T03:35:02;35.17;;;8.50;;
49378;SDS011;35254;47.990;-1.608;2023-09-07T03:37:34;30.77;;;8.00;;
49378;SDS011;35254;47.990;-1.608;2023-09-07T03:40:00;34.72;;;6.57;;
49378;SDS011;35254;47.990;-1.608;2023-09-07T03:42:26;18.42;;;6.53;;
49378;SDS011;35254;47.990;-1.608;2023-09-07T03:44:52;42.03;;;8.57;;
49378;SDS011;35254;47.990;-1.608;2023-09-07T03:47:17;21.08;;;6.53;;
49378;SDS011;35254;47.990;-1.608;2023-09-07T03:49:43;19.13;;;6.07;;
49378;SDS011;35254;47.990;-1.608;2023-09-07T03:52:09;23.00;;;6.35;;
49378;SDS011;35254;47.990;-1.608;2023-09-07T03:54:35;22.83;;;6.47;;
49378;SDS011;35254;47.990;-1.608;2023-09-07T03:57:00;20.63;;;6.22;;
49378;SDS011;35254;47.990;-1.608;2023-09-07T03:59:27;17.90;;;5.30;;
49378;SDS011;35254;47.990;-1.608;2023-09-07T04:01:53;32.60;;;7.22;;
49378;SDS011;35254;47.990;-1.608;2023-09-07T04:04:19;20.83;;;5.90;;
49378;SDS011;35254;47.990;-1.608;2023-09-07T04:06:48;15.70;;;5.57;;
49378;SDS011;35254;47.990;-1.608;2023-09-07T04:09:14;22.90;;;6.25;;
49378;SDS011;35254;47.990;-1.608;2023-09-07T04:11:40;28.42;;;6.05;;
49378;SDS011;35254;47.990;-1.608;2023-09-07T04:14:06;17.08;;;5.55;;
49378;SDS011;35254;47.990;-1.608;2023-09-07T04:16:31;18.98;;;5.60;;
49378;SDS011;35254;47.990;-1.608;2023-09-07T04:18:57;25.13;;;5.88;;
49378;SDS011;35254;47.990;-1.608;2023-09-07T04:21:23;12.77;;;5.43;;
49378;SDS011;35254;47.990;-1.608;2023-09-07T04:23:48;21.58;;;6.95;;
49378;SDS011;35254;47.990;-1.608;2023-09-07T04:26:14;29.02;;;7.03;;
49378;SDS011;35254;47.990;-1.608;2023-09-07T04:28:40;47.50;;;10.13;;
49378;SDS011;35254;47.990;-1.608;2023-09-07T04:31:06;30.77;;;9.52;;
49378;SDS011;35254;47.990;-1.608;2023-09-07T04:33:32;19.17;;;7.10;;
49378;SDS011;35254;47.990;-1.608;2023-09-07T04:36:10;21.17;;;6.43;;
49378;SDS011;35254;47.990;-1.608;2023-09-07T04:38:37;21.00;;;5.90;;
49378;SDS011;35254;47.990;-1.608;2023-09-07T04:41:10;26.23;;;6.18;;
49378;SDS011;35254;47.990;-1.608;2023-09-07T04:43:37;29.67;;;7.63;;
49378;SDS011;35254;47.990;-1.608;2023-09-07T04:46:05;26.85;;;6.57;;
49378;SDS011;35254;47.990;-1.608;2023-09-07T04:48:31;20.98;;;6.15;;
49378;SDS011;35254;47.990;-1.608;2023-09-07T04:51:01;18.35;;;6.00;;
49378;SDS011;35254;47.990;-1.608;2023-09-07T04:53:28;21.98;;;6.43;;
49378;SDS011;35254;47.990;-1.608;2023-09-07T04:55:56;16.33;;;5.65;;
49378;SDS011;35254;47.990;-1.608;2023-09-07T04:58:22;26.98;;;6.50;;
49378;SDS011;35254;47.990;-1.608;2023-09-07T05:00:47;21.25;;;6.40;;
49378;SDS011;35254;47.990;-1.608;2023-09-07T05:03:13;10.43;;;4.05;;
49378;SDS011;35254;47.990;-1.608;2023-09-07T05:05:39;17.85;;;6.30;;
49378;SDS011;35254;47.990;-1.608;2023-09-07T05:08:05;16.83;;;6.93;;
49378;SDS011;35254;47.990;-1.608;2023-09-07T05:10:33;13.68;;;4.70;;
49378;SDS011;35254;47.990;-1.608;2023-09-07T05:12:59;22.60;;;4.80;;
49378;SDS011;35254;47.990;-1.608;2023-09-07T05:15:25;14.98;;;4.55;;
49378;SDS011;35254;47.990;-1.608;2023-09-07T05:17:51;31.75;;;6.00;;
49378;SDS011;35254;47.990;-1.608;2023-09-07T05:20:17;22.30;;;6.15;;
49378;SDS011;35254;47.990;-1.608;2023-09-07T05:22:43;18.27;;;5.03;;
49378;SDS011;35254;47.990;-1.608;2023-09-07T05:25:09;28.70;;;7.22;;
49378;SDS011;35254;47.990;-1.608;2023-09-07T05:27:35;38.65;;;9.88;;
49378;SDS011;35254;47.990;-1.608;2023-09-07T05:30:01;32.33;;;8.15;;
49378;SDS011;35254;47.990;-1.608;2023-09-07T05:32:27;26.05;;;7.50;;
49378;SDS011;35254;47.990;-1.608;2023-09-07T05:34:53;22.95;;;9.38;;
49378;SDS011;35254;47.990;-1.608;2023-09-07T05:37:18;31.13;;;8.45;;
49378;SDS011;35254;47.990;-1.608;2023-09-07T05:39:44;37.75;;;8.80;;
49378;SDS011;35254;47.990;-1.608;2023-09-07T05:42:09;40.33;;;8.80;;
49378;SDS011;35254;47.990;-1.608;2023-09-07T05:44:35;31.65;;;7.97;;
49378;SDS011;35254;47.990;-1.608;2023-09-07T05:47:01;23.80;;;7.40;;
49378;SDS011;35254;47.990;-1.608;2023-09-07T05:49:27;28.67;;;6.97;;
49378;SDS011;35254;47.990;-1.608;2023-09-07T05:51:53;23.00;;;7.05;;
49378;SDS011;35254;47.990;-1.608;2023-09-07T05:54:19;29.73;;;7.10;;
49378;SDS011;35254;47.990;-1.608;2023-09-07T05:56:44;29.27;;;8.43;;
49378;SDS011;35254;47.990;-1.608;2023-09-07T05:59:10;42.33;;;8.02;;
49378;SDS011;35254;47.990;-1.608;2023-09-07T06:01:35;39.08;;;11.05;;
49378;SDS011;35254;47.990;-1.608;2023-09-07T06:04:01;27.10;;;7.45;;
49378;SDS011;35254;47.990;-1.608;2023-09-07T06:06:27;24.42;;;7.05;;
49378;SDS011;35254;47.990;-1.608;2023-09-07T06:08:53;25.13;;;7.18;;
49378;SDS011;35254;47.990;-1.608;2023-09-07T06:11:19;33.42;;;8.52;;
49378;SDS011;35254;47.990;-1.608;2023-09-07T06:13:45;30.92;;;8.10;;
49378;SDS011;35254;47.990;-1.608;2023-09-07T06:16:12;42.63;;;8.77;;
49378;SDS011;35254;47.990;-1.608;2023-09-07T06:18:37;31.73;;;8.45;;
49378;SDS011;35254;47.990;-1.608;2023-09-07T06:21:03;56.78;;;11.57;;
49378;SDS011;35254;47.990;-1.608;2023-09-07T06:23:30;32.17;;;8.20;;
49378;SDS011;35254;47.990;-1.608;2023-09-07T06:25:56;40.75;;;10.02;;
49378;SDS011;35254;47.990;-1.608;2023-09-07T06:28:22;39.50;;;9.32;;
49378;SDS011;35254;47.990;-1.608;2023-09-07T06:30:48;62.13;;;14.13;;
49378;SDS011;35254;47.990;-1.608;2023-09-07T06:33:13;59.40;;;15.43;;
49378;SDS011;35254;47.990;-1.608;2023-09-07T06:35:39;63.97;;;13.90;;
49378;SDS011;35254;47.990;-1.608;2023-09-07T06:38:05;50.88;;;14.57;;
49378;SDS011;35254;47.990;-1.608;2023-09-07T06:40:30;51.15;;;12.80;;
49378;SDS011;35254;47.990;-1.608;2023-09-07T06:42:56;43.53;;;13.77;;
49378;SDS011;35254;47.990;-1.608;2023-09-07T06:45:22;48.13;;;13.35;;
49378;SDS011;35254;47.990;-1.608;2023-09-07T06:47:50;45.97;;;16.95;;
49378;SDS011;35254;47.990;-1.608;2023-09-07T06:50:16;28.95;;;11.20;;
49378;SDS011;35254;47.990;-1.608;2023-09-07T06:52:42;43.92;;;11.25;;
49378;SDS011;35254;47.990;-1.608;2023-09-07T06:55:07;27.90;;;9.60;;
49378;SDS011;35254;47.990;-1.608;2023-09-07T06:57:34;25.35;;;11.35;;
49378;SDS011;35254;47.990;-1.608;2023-09-07T06:59:59;33.85;;;9.05;;
49378;SDS011;35254;47.990;-1.608;2023-09-07T07:02:25;32.50;;;7.20;;
49378;SDS011;35254;47.990;-1.608;2023-09-07T07:04:51;30.45;;;8.13;;
49378;SDS011;35254;47.990;-1.608;2023-09-07T07:07:17;26.85;;;7.50;;
49378;SDS011;35254;47.990;-1.608;2023-09-07T07:09:43;22.00;;;8.00;;
49378;SDS011;35254;47.990;-1.608;2023-09-07T07:12:08;27.42;;;7.43;;
49378;SDS011;35254;47.990;-1.608;2023-09-07T07:14:34;18.90;;;6.68;;
49378;SDS011;35254;47.990;-1.608;2023-09-07T07:17:00;20.35;;;7.20;;
49378;SDS011;35254;47.990;-1.608;2023-09-07T07:19:30;27.45;;;7.10;;
49378;SDS011;35254;47.990;-1.608;2023-09-07T07:21:57;16.55;;;7.03;;
49378;SDS011;35254;47.990;-1.608;2023-09-07T07:24:23;19.73;;;6.63;;
49378;SDS011;35254;47.990;-1.608;2023-09-07T07:26:48;26.13;;;5.70;;
49378;SDS011;35254;47.990;-1.608;2023-09-07T07:29:14;22.92;;;6.63;;
49378;SDS011;35254;47.990;-1.608;2023-09-07T07:31:40;16.92;;;6.63;;
49378;SDS011;35254;47.990;-1.608;2023-09-07T07:34:05;18.65;;;7.95;;
49378;SDS011;35254;47.990;-1.608;2023-09-07T07:36:31;18.90;;;6.03;;
49378;SDS011;35254;47.990;-1.608;2023-09-07T07:38:57;17.05;;;6.32;;
49378;SDS011;35254;47.990;-1.608;2023-09-07T07:41:22;18.73;;;6.25;;
49378;SDS011;35254;47.990;-1.608;2023-09-07T07:43:48;17.95;;;6.53;;
49378;SDS011;35254;47.990;-1.608;2023-09-07T07:46:13;14.77;;;4.95;;
49378;SDS011;35254;47.990;-1.608;2023-09-07T07:48:41;15.23;;;6.35;;
49378;SDS011;35254;47.990;-1.608;2023-09-07T07:51:07;15.95;;;6.32;;
49378;SDS011;35254;47.990;-1.608;2023-09-07T07:53:34;16.98;;;6.40;;
49378;SDS011;35254;47.990;-1.608;2023-09-07T07:55:59;17.85;;;7.53;;
49378;SDS011;35254;47.990;-1.608;2023-09-07T07:58:25;15.85;;;6.68;;
49378;SDS011;35254;47.990;-1.608;2023-09-07T08:00:51;17.40;;;5.50;;
49378;SDS011;35254;47.990;-1.608;2023-09-07T08:03:17;15.52;;;7.47;;
49378;SDS011;35254;47.990;-1.608;2023-09-07T08:05:42;13.15;;;5.50;;
49378;SDS011;35254;47.990;-1.608;2023-09-07T08:08:09;15.95;;;5.32;;
49378;SDS011;35254;47.990;-1.608;2023-09-07T08:10:36;14.82;;;5.65;;
49378;SDS011;35254;47.990;-1.608;2023-09-07T08:13:02;15.48;;;4.93;;
49378;SDS011;35254;47.990;-1.608;2023-09-07T08:15:28;13.70;;;5.55;;
49378;SDS011;35254;47.990;-1.608;2023-09-07T08:17:54;13.00;;;4.50;;
49378;SDS011;35254;47.990;-1.608;2023-09-07T08:20:20;14.85;;;5.05;;
49378;SDS011;35254;47.990;-1.608;2023-09-07T08:22:46;12.68;;;5.38;;
49378;SDS011;35254;47.990;-1.608;2023-09-07T08:25:12;17.02;;;5.43;;
49378;SDS011;35254;47.990;-1.608;2023-09-07T08:27:42;14.00;;;5.07;;
49378;SDS011;35254;47.990;-1.608;2023-09-07T08:30:13;12.23;;;5.68;;
49378;SDS011;35254;47.990;-1.608;2023-09-07T08:32:43;12.43;;;4.78;;
49378;SDS011;35254;47.990;-1.608;2023-09-07T08:35:11;11.95;;;5.82;;
49378;SDS011;35254;47.990;-1.608;2023-09-07T08:37:41;9.10;;;4.88;;
49378;SDS011;35254;47.990;-1.608;2023-09-07T08:40:07;10.30;;;4.80;;
49378;SDS011;35254;47.990;-1.608;2023-09-07T08:42:37;13.20;;;6.28;;
49378;SDS011;35254;47.990;-1.608;2023-09-07T08:45:03;16.85;;;5.30;;
49378;SDS011;35254;47.990;-1.608;2023-09-07T08:47:36;12.95;;;5.47;;
49378;SDS011;35254;47.990;-1.608;2023-09-07T08:50:03;7.03;;;4.72;;
49378;SDS011;35254;47.990;-1.608;2023-09-07T08:52:33;11.65;;;4.60;;
49378;SDS011;35254;47.990;-1.608;2023-09-07T08:54:59;10.73;;;4.45;;
49378;SDS011;35254;47.990;-1.608;2023-09-07T08:57:28;11.50;;;4.30;;
49378;SDS011;35254;47.990;-1.608;2023-09-07T08:59:55;12.02;;;4.97;;
49378;SDS011;35254;47.990;-1.608;2023-09-07T09:02:21;12.00;;;5.10;;
49378;SDS011;35254;47.990;-1.608;2023-09-07T09:04:46;14.82;;;4.82;;
49378;SDS011;35254;47.990;-1.608;2023-09-07T09:07:12;14.05;;;4.93;;
49378;SDS011;35254;47.990;-1.608;2023-09-07T09:09:38;12.15;;;4.60;;
49378;SDS011;35254;47.990;-1.608;2023-09-07T09:12:10;9.05;;;4.13;;
49378;SDS011;35254;47.990;-1.608;2023-09-07T09:14:37;6.93;;;4.28;;
49378;SDS011;35254;47.990;-1.608;2023-09-07T09:17:03;9.93;;;4.40;;
49378;SDS011;35254;47.990;-1.608;2023-09-07T09:19:32;12.45;;;5.38;;
49378;SDS011;35254;47.990;-1.608;2023-09-07T09:21:59;10.35;;;4.97;;
49378;SDS011;35254;47.990;-1.608;2023-09-07T09:24:25;8.50;;;4.35;;
49378;SDS011;35254;47.990;-1.608;2023-09-07T09:26:50;9.82;;;4.72;;
49378;SDS011;35254;47.990;-1.608;2023-09-07T09:29:16;9.40;;;4.78;;
49378;SDS011;35254;47.990;-1.608;2023-09-07T09:31:46;13.13;;;5.68;;
49378;SDS011;35254;47.990;-1.608;2023-09-07T09:34:12;12.02;;;4.43;;
49378;SDS011;35254;47.990;-1.608;2023-09-07T09:36:40;8.57;;;4.13;;
49378;SDS011;35254;47.990;-1.608;2023-09-07T09:39:07;7.93;;;4.15;;
49378;SDS011;35254;47.990;-1.608;2023-09-07T09:41:34;6.55;;;4.10;;
49378;SDS011;35254;47.990;-1.608;2023-09-07T09:44:02;9.20;;;4.10;;
49378;SDS011;35254;47.990;-1.608;2023-09-07T09:46:28;7.80;;;4.07;;
49378;SDS011;35254;47.990;-1.608;2023-09-07T09:48:56;8.48;;;4.13;;
49378;SDS011;35254;47.990;-1.608;2023-09-07T09:51:23;10.18;;;4.45;;
49378;SDS011;35254;47.990;-1.608;2023-09-07T09:53:49;15.15;;;4.53;;
49378;SDS011;35254;47.990;-1.608;2023-09-07T09:56:16;8.30;;;4.38;;
49378;SDS011;35254;47.990;-1.608;2023-09-07T09:58:42;7.03;;;4.70;;
49378;SDS011;35254;47.990;-1.608;2023-09-07T10:01:08;5.57;;;4.45;;
49378;SDS011;35254;47.990;-1.608;2023-09-07T10:03:38;6.00;;;4.30;;
49378;SDS011;35254;47.990;-1.608;2023-09-07T10:06:33;7.93;;;4.18;;
49378;SDS011;35254;47.990;-1.608;2023-09-07T10:09:02;7.60;;;4.25;;
49378;SDS011;35254;47.990;-1.608;2023-09-07T10:11:35;8.75;;;4.25;;
49378;SDS011;35254;47.990;-1.608;2023-09-07T10:14:03;7.75;;;4.78;;
49378;SDS011;35254;47.990;-1.608;2023-09-07T10:16:43;8.88;;;3.97;;
49378;SDS011;35254;47.990;-1.608;2023-09-07T10:19:14;10.25;;;3.67;;
49378;SDS011;35254;47.990;-1.608;2023-09-07T10:21:40;5.35;;;4.00;;
49378;SDS011;35254;47.990;-1.608;2023-09-07T10:24:06;6.57;;;3.58;;
49378;SDS011;35254;47.990;-1.608;2023-09-07T10:26:32;6.15;;;3.78;;
49378;SDS011;35254;47.990;-1.608;2023-09-07T10:28:58;7.53;;;4.45;;
49378;SDS011;35254;47.990;-1.608;2023-09-07T10:31:26;5.07;;;3.65;;
49378;SDS011;35254;47.990;-1.608;2023-09-07T10:33:52;7.72;;;4.18;;
49378;SDS011;35254;47.990;-1.608;2023-09-07T10:36:25;10.23;;;4.70;;
49378;SDS011;35254;47.990;-1.608;2023-09-07T10:38:52;6.25;;;3.35;;
49378;SDS011;35254;47.990;-1.608;2023-09-07T10:41:20;9.27;;;4.50;;
49378;SDS011;35254;47.990;-1.608;2023-09-07T10:43:50;8.60;;;4.85;;
49378;SDS011;35254;47.990;-1.608;2023-09-07T10:46:20;5.30;;;3.95;;
49378;SDS011;35254;47.990;-1.608;2023-09-07T10:48:50;12.20;;;6.20;;
49378;SDS011;35254;47.990;-1.608;2023-09-07T10:51:16;9.02;;;4.50;;
49378;SDS011;35254;47.990;-1.608;2023-09-07T10:53:43;8.02;;;3.88;;
49378;SDS011;35254;47.990;-1.608;2023-09-07T10:56:08;7.45;;;3.70;;
49378;SDS011;35254;47.990;-1.608;2023-09-07T10:58:35;10.32;;;4.53;;
49378;SDS011;35254;47.990;-1.608;2023-09-07T11:01:05;7.70;;;4.20;;
49378;SDS011;35254;47.990;-1.608;2023-09-07T11:03:32;5.70;;;4.07;;
49378;SDS011;35254;47.990;-1.608;2023-09-07T11:06:10;6.35;;;4.25;;
49378;SDS011;35254;47.990;-1.608;2023-09-07T11:08:39;10.95;;;4.85;;
49378;SDS011;35254;47.990;-1.608;2023-09-07T11:11:05;5.47;;;3.40;;
49378;SDS011;35254;47.990;-1.608;2023-09-07T11:13:31;4.85;;;3.78;;
49378;SDS011;35254;47.990;-1.608;2023-09-07T11:15:57;8.88;;;4.55;;
49378;SDS011;35254;47.990;-1.608;2023-09-07T11:18:24;11.25;;;4.13;;
49378;SDS011;35254;47.990;-1.608;2023-09-07T11:20:51;6.25;;;4.53;;
49378;SDS011;35254;47.990;-1.608;2023-09-07T11:23:17;10.23;;;4.75;;
49378;SDS011;35254;47.990;-1.608;2023-09-07T11:25:44;6.80;;;3.60;;
49378;SDS011;35254;47.990;-1.608;2023-09-07T11:28:11;7.32;;;3.63;;
49378;SDS011;35254;47.990;-1.608;2023-09-07T11:30:37;6.22;;;3.58;;
49378;SDS011;35254;47.990;-1.608;2023-09-07T11:33:13;4.55;;;3.63;;
49378;SDS011;35254;47.990;-1.608;2023-09-07T11:35:40;12.30;;;4.28;;
49378;SDS011;35254;47.990;-1.608;2023-09-07T11:38:06;10.80;;;4.25;;
49378;SDS011;35254;47.990;-1.608;2023-09-07T11:40:35;9.38;;;3.63;;
49378;SDS011;35254;47.990;-1.608;2023-09-07T11:43:00;11.32;;;4.05;;
49378;SDS011;35254;47.990;-1.608;2023-09-07T11:45:26;17.70;;;4.00;;
49378;SDS011;35254;47.990;-1.608;2023-09-07T11:47:52;9.88;;;4.60;;
49378;SDS011;35254;47.990;-1.608;2023-09-07T11:50:18;7.82;;;3.55;;
49378;SDS011;35254;47.990;-1.608;2023-09-07T11:52:46;6.35;;;4.18;;
49378;SDS011;35254;47.990;-1.608;2023-09-07T11:55:15;6.45;;;3.20;;
49378;SDS011;35254;47.990;-1.608;2023-09-07T11:57:41;9.32;;;3.88;;
49378;SDS011;35254;47.990;-1.608;2023-09-07T12:00:07;8.07;;;3.90;;
49378;SDS011;35254;47.990;-1.608;2023-09-07T12:02:38;10.38;;;4.53;;
49378;SDS011;35254;47.990;-1.608;2023-09-07T12:05:04;5.18;;;3.50;;
49378;SDS011;35254;47.990;-1.608;2023-09-07T12:07:32;7.05;;;3.88;;
49378;SDS011;35254;47.990;-1.608;2023-09-07T12:09:58;11.82;;;5.03;;
49378;SDS011;35254;47.990;-1.608;2023-09-07T12:12:24;9.20;;;4.30;;
49378;SDS011;35254;47.990;-1.608;2023-09-07T12:14:50;6.97;;;4.25;;
49378;SDS011;35254;47.990;-1.608;2023-09-07T12:17:15;9.68;;;4.25;;
49378;SDS011;35254;47.990;-1.608;2023-09-07T12:19:41;11.57;;;3.90;;
49378;SDS011;35254;47.990;-1.608;2023-09-07T12:22:07;12.95;;;4.60;;
49378;SDS011;35254;47.990;-1.608;2023-09-07T12:24:33;9.20;;;3.67;;
49378;SDS011;35254;47.990;-1.608;2023-09-07T12:26:59;9.60;;;3.65;;
49378;SDS011;35254;47.990;-1.608;2023-09-07T12:29:25;7.00;;;4.43;;
49378;SDS011;35254;47.990;-1.608;2023-09-07T12:31:50;6.70;;;3.80;;
49378;SDS011;35254;47.990;-1.608;2023-09-07T12:34:16;13.40;;;4.93;;
49378;SDS011;35254;47.990;-1.608;2023-09-07T12:36:42;6.65;;;4.07;;
49378;SDS011;35254;47.990;-1.608;2023-09-07T12:39:07;7.13;;;4.32;;
49378;SDS011;35254;47.990;-1.608;2023-09-07T12:41:33;7.88;;;4.63;;
49378;SDS011;35254;47.990;-1.608;2023-09-07T12:43:59;11.07;;;4.25;;
49378;SDS011;35254;47.990;-1.608;2023-09-07T12:46:24;13.27;;;5.25;;
49378;SDS011;35254;47.990;-1.608;2023-09-07T12:48:50;14.48;;;5.13;;
49378;SDS011;35254;47.990;-1.608;2023-09-07T12:51:16;6.72;;;4.07;;
49378;SDS011;35254;47.990;-1.608;2023-09-07T12:53:41;13.38;;;3.85;;
49378;SDS011;35254;47.990;-1.608;2023-09-07T12:56:07;9.23;;;4.03;;
49378;SDS011;35254;47.990;-1.608;2023-09-07T12:58:33;6.05;;;3.90;;
49378;SDS011;35254;47.990;-1.608;2023-09-07T13:00:58;9.90;;;4.18;;
49378;SDS011;35254;47.990;-1.608;2023-09-07T13:03:24;9.88;;;5.00;;
49378;SDS011;35254;47.990;-1.608;2023-09-07T13:05:49;4.80;;;3.92;;
49378;SDS011;35254;47.990;-1.608;2023-09-07T13:08:15;11.25;;;4.68;;
49378;SDS011;35254;47.990;-1.608;2023-09-07T13:10:41;7.90;;;4.47;;
49378;SDS011;35254;47.990;-1.608;2023-09-07T13:13:06;8.93;;;3.92;;
49378;SDS011;35254;47.990;-1.608;2023-09-07T13:15:32;8.02;;;4.47;;
49378;SDS011;35254;47.990;-1.608;2023-09-07T13:17:58;4.75;;;3.42;;
49378;SDS011;35254;47.990;-1.608;2023-09-07T13:20:24;7.60;;;3.47;;
49378;SDS011;35254;47.990;-1.608;2023-09-07T13:22:50;8.95;;;3.92;;
49378;SDS011;35254;47.990;-1.608;2023-09-07T13:25:15;7.97;;;3.45;;
49378;SDS011;35254;47.990;-1.608;2023-09-07T13:27:41;9.13;;;3.58;;
49378;SDS011;35254;47.990;-1.608;2023-09-07T13:30:06;7.28;;;2.95;;
49378;SDS011;35254;47.990;-1.608;2023-09-07T13:35:03;8.45;;;3.90;;
49378;SDS011;35254;47.990;-1.608;2023-09-07T13:37:29;8.23;;;4.63;;
49378;SDS011;35254;47.990;-1.608;2023-09-07T13:39:55;7.63;;;3.45;;
49378;SDS011;35254;47.990;-1.608;2023-09-07T13:42:20;6.30;;;4.13;;
49378;SDS011;35254;47.990;-1.608;2023-09-07T13:44:46;7.15;;;3.83;;
49378;SDS011;35254;47.990;-1.608;2023-09-07T13:47:12;6.45;;;4.13;;
49378;SDS011;35254;47.990;-1.608;2023-09-07T13:49:38;6.32;;;3.75;;
49378;SDS011;35254;47.990;-1.608;2023-09-07T13:52:04;11.55;;;4.68;;
49378;SDS011;35254;47.990;-1.608;2023-09-07T13:54:29;9.68;;;4.03;;
49378;SDS011;35254;47.990;-1.608;2023-09-07T13:56:55;10.15;;;4.47;;
49378;SDS011;35254;47.990;-1.608;2023-09-07T13:59:21;8.10;;;3.72;;
49378;SDS011;35254;47.990;-1.608;2023-09-07T14:01:46;8.82;;;3.70;;
49378;SDS011;35254;47.990;-1.608;2023-09-07T14:04:14;8.05;;;3.63;;
49378;SDS011;35254;47.990;-1.608;2023-09-07T14:06:40;12.10;;;3.95;;
49378;SDS011;35254;47.990;-1.608;2023-09-07T14:09:05;5.75;;;4.18;;
49378;SDS011;35254;47.990;-1.608;2023-09-07T14:11:31;11.88;;;5.13;;
49378;SDS011;35254;47.990;-1.608;2023-09-07T14:13:58;8.65;;;4.18;;
49378;SDS011;35254;47.990;-1.608;2023-09-07T14:16:24;8.82;;;3.65;;
49378;SDS011;35254;47.990;-1.608;2023-09-07T14:18:49;5.93;;;3.72;;
49378;SDS011;35254;47.990;-1.608;2023-09-07T14:21:15;14.15;;;3.67;;
49378;SDS011;35254;47.990;-1.608;2023-09-07T14:23:42;13.50;;;4.65;;
49378;SDS011;35254;47.990;-1.608;2023-09-07T14:26:08;5.35;;;3.80;;